Terminal Aerodrome Forecast
Issued by NWS

Home | Current Version | Previous Version | Graphics & Text | Print | Product List | Glossary On
Versions: 1 2 3 4 5 6 7 8 9 10 11 12 13 14 15 16 17 18 19 20 21 22
037
FTUS43 KMPX 210840 AAA
TAFRWF
TAF AMD
KRWF 210840Z 2109/2206 10006KT 1 1/2SM -DZ BR OVC003
     FM211200 11005KT 3/4SM -RA BR OVC002
     FM211800 VRB03KT 1 1/2SM BR OVC003=

USA.gov is the U.S. government's official web portal to all federal, state and local government web resources and services.